Andersonville, Virginia
Current Conditions -  °F | °C
As of 11:55 PM on Sunday 21 Dec 2014 (Local Time) from KFVX Reporting Station
Overcast Overcast  
Wind Chill:   Ceiling: 4400
Heat Index:   Visibility: 10mi
Dew Point: -1°   Wind: 3mph
Humidity: 71%   Direction: 360°N
Pressure: 30.28"   Gusts: NA
Location:  37.47°N, 78.57°W
Report Text: KFVX 220455Z AUTO 36003KT 10SM OVC044 04/M01 A3028 RMK AO2 T00361013 401260020
Loading
Personal Weather Stations






























Interactive Weather Map New forecast layout! Learn more

10-Day Weather Forecast

Advertisements
Track Severe Weather on mobile